Tiempo atmosférico en la estación meteorológica de Alicante/Alacant Aeropuerto, Alacant/Alicante (43 m.)



Fecha
DESCASC
Temp. máxima en grados centígrados (hora)
DESCASC
Temp. mínima en grados centígrados (hora)
DESCASC
Temp. media en grados centígrados
DESCASC
Racha de viento máxima en m/sg (hora)
DESCASC
Velocidad máxima media en intervalos de 10 minutos(hora)
DESCASC
Precipitaciones diarias en mm
DESCASC
Precipitaciones de 00:00 a 06:00 en mm
DESCASC
Precipitaciones de 06:00 a 12:00 en mm
DESCASC
Precipitaciones de 12:00 a 18:00 en mm
DESCASC
Precipitaciones de 18:00 a 24:00 en mm
DESCASC

Gráficas

Temp. máximas Temp. mínimas Temp. medias Precipitaciones Rachas de viento máximas Velocidades máximas media en intervalos de 10 minutos

Datos horarios

Fecha y hora oficial Temperatura (ºC) Velocidad del viento (km/h) Dirección del viento Racha (km/h) Dirección de racha Precipitación (mm) Presión (hPa) Tendencia (hPa) Humedad (%)
2020-03-28 23:00:00 8.3 8 Oeste -- -- 0 1016 1.2 91
2020-03-28 22:00:00 9 8 Noroeste 9 Noroeste 0 1016 1.5 89
2020-03-28 21:00:00 9.8 7 Oeste 9 Oeste 0 1015.6 1.5 87
2020-03-28 20:00:00 11.2 2 Sudeste 9 Sudeste 0 1014.8 1.1 79
2020-03-28 19:00:00 12.9 8 Este 17 Este 0 1014.5 0.7 71
2020-03-28 18:00:00 14.3 7 Este 15 Norte 0 1014.1 0.1 59
2020-03-28 17:00:00 14.4 6 Este 21 Este 0 1013.7 -0.6 59
2020-03-28 16:00:00 14.4 15 Este 24 Este 0 1013.8 -0.4 60
2020-03-28 15:00:00 16 15 Este 24 Este 0 1014 -0.5 55
2020-03-28 14:00:00 14.9 14 Este 24 Este 0 1014.3 -0.4 54
2020-03-28 13:00:00 16.2 4 Sur 21 Sudoeste 0 1014.2 -0.4 44
2020-03-28 12:00:00 15.7 5 Nordeste 18 Oeste 0 1014.5 0.4 48
2020-03-28 11:00:00 14.4 8 Oeste 15 Oeste 0 1014.7 1.1 49
2020-03-28 10:00:00 12.7 13 Noroeste 21 Noroeste 0 1014.6 1.5 62
2020-03-28 09:00:00 10.5 14 Noroeste 22 Noroeste 0 1014.1 1.5 71
2020-03-28 08:00:00 8.6 17 Noroeste 28 Noroeste 0 1013.6 1.4 78
2020-03-28 07:00:00 8.3 20 Noroeste 28 Noroeste 0 1013.1 1 79
2020-03-28 06:00:00 8.7 10 Oeste 17 Noroeste 0 1012.6 0.4 84
2020-03-28 05:00:00 8.8 9 Noroeste 13 Norte 0 1012.2 0.1 83
2020-03-28 04:00:00 9.5 10 Norte 17 Norte 0 1012.1 0 80
2020-03-28 03:00:00 10.1 6 Norte 18 Norte 0 1012.2 0 76
2020-03-28 02:00:00 10.5 14 Norte 21 Nordeste 0 1012.1 0.3 71
2020-03-28 01:00:00 10 14 Nordeste 22 Nordeste 0 1012.1 0.8 74
2020-03-28 00:00:00 9.6 9 Nordeste 17 Nordeste 0.2 1012.2 1.4 80
2020-03-27 23:00:00 10.3 12 Norte 21 Norte 0 1011.8 1.5 74
2020-03-27 22:00:00 10.3 12 Norte 18 Norte 0 1011.3 1.4 71
2020-03-27 21:00:00 9.8 11 Norte 15 Nordeste 0 1010.8 1.4 82
2020-03-27 20:00:00 9.6 11 Nordeste 22 Nordeste 0 1010.3 0.7 86
2020-03-27 19:00:00 9.8 13 Nordeste 26 Nordeste 0 1009.9 0.3 84
2020-03-27 18:00:00 9.7 18 Nordeste 32 Nordeste 0 1009.4 -0.4 87
2020-03-27 17:00:00 9.3 19 Nordeste 32 Nordeste 0.2 1009.6 -0.3 90
2020-03-27 16:00:00 9.5 19 Nordeste 30 Nordeste 2.2 1009.6 -0.1 95
2020-03-27 15:00:00 9.6 19 Norte 26 Norte 1.6 1009.8 -0.2 93
2020-03-27 14:00:00 9.2 14 Norte 28 Nordeste 1.3 1009.9 0 90
2020-03-27 13:00:00 9.3 19 Norte 30 Norte 0.5 1009.7 0 87
2020-03-27 12:00:00 9.3 14 Nordeste 32 Norte 0.5 1010 0.9 91
2020-03-27 11:00:00 10.9 13 Norte 18 Norte 0 1009.9 1.6 74
2020-03-27 10:00:00 10.6 8 Norte 11 Norte 0 1009.7 2 75
2020-03-27 09:00:00 10.2 8 Norte 18 Norte 0 1009.1 1.4 74
2020-03-27 08:00:00 10.3 11 Norte 15 Norte 0 1008.3 0.8 66
2020-03-27 07:00:00 10.1 12 Norte 18 Nordeste 0 1007.7 -0.2 67
2020-03-27 06:00:00 10 7 Norte 15 Norte 0 1007.7 -0.4 65
2020-03-27 05:00:00 10.3 11 Norte 18 Nordeste 0 1007.5 -0.8 66
2020-03-27 04:00:00 10.3 10 Norte 15 Norte 0 1007.9 -0.4 69
2020-03-27 03:00:00 10.1 13 Norte 18 Norte 0 1008.1 -0.1 69
2020-03-27 02:00:00 10.2 11 Nordeste 17 Nordeste 0 1008.3 0.4 70
2020-03-27 01:00:00 10.3 12 Nordeste 21 Nordeste 0 1008.3 1 68
2020-03-27 00:00:00 10.8 12 Nordeste 30 Este 0 1008.2 1.5 64
2020-03-26 23:00:00 11.2 17 Este 28 Nordeste 0 1007.9 2.1 60
2020-03-26 22:00:00 11.3 14 Nordeste 24 Nordeste 0 1007.3 2.1 60
2020-03-26 21:00:00 11.3 17 Nordeste 30 Nordeste 0 1006.7 2 60
2020-03-26 20:00:00 11.8 5 Nordeste 28 Este 0 1005.8 2.2 72
2020-03-26 19:00:00 13 18 Este 35 Este 0 1005.2 1.8 66
2020-03-26 18:00:00 14.7 21 Este 32 Este 0 1004.7 1.3 58
2020-03-26 17:00:00 15.5 18 Este 33 Este 0 1003.6 0.1 58
2020-03-26 16:00:00 15.7 18 Este 33 Este 0 1003.4 -0.5 64
2020-03-26 15:00:00 18.8 17 Este 41 Noroeste 0 1003.4 -0.9 30
2020-03-26 14:00:00 18.5 17 Nordeste 32 Noroeste 0 1003.5 -0.8 37
2020-03-26 13:00:00 17.6 12 Este 22 Nordeste 0 1003.9 -0.6 54
2020-03-26 12:00:00 17 11 Este 35 Oeste 0 1004.3 -0.4 49
2020-03-26 11:00:00 16.1 27 Noroeste 41 Oeste 0 1004.3 -0.8 54
2020-03-26 10:00:00 14 17 Oeste 28 Oeste 0 1004.5 -0.9 76
2020-03-26 09:00:00 11.5 16 Oeste 22 Oeste 0 1004.7 -1.1 86
2020-03-26 08:00:00 7.7 11 Sudoeste 17 Sudoeste 0 1005.1 -1.6 99
2020-03-26 07:00:00 7.1 9 Sudoeste 13 Oeste 0 1005.4 -2.3 99
2020-03-26 06:00:00 7 11 Oeste 15 Oeste 0 1005.8 -2.9 99
2020-03-26 05:00:00 7.5 0 Calma 9 Oeste 0 1006.7 -3.3 99
2020-03-26 04:00:00 8.6 5 Oeste 9 Noroeste 0 1007.7 -3.5 98
2020-03-26 03:00:00 9.1 5 Oeste 8 Noroeste 0 1008.7 -3.1 97
2020-03-26 02:00:00 9.2 0 Calma 11 Sur 1.2 1010 -2.3 98
2020-03-26 01:00:00 9.3 8 Noroeste 11 Noroeste 2.7 1011.2 -1.8 96
2020-03-26 00:00:00 9.8 8 Norte 9 Norte 0.6 1011.8 -1.2 92
2020-03-25 23:00:00 10.1 -- -- -- -- 0.1 1012.3 -0.5 92
2020-03-25 22:00:00 9.3 4 Nordeste 9 Nordeste 0 1013 0.4 93
2020-03-25 21:00:00 10 3 Este 13 Este 0.2 1013 0.7 92
2020-03-25 20:00:00 10.8 11 Este 17 Este 0 1012.8 0.4 80
2020-03-25 19:00:00 11.2 12 Este 28 Este 0 1012.6 0.1 72
2020-03-25 18:00:00 11.6 18 Este 30 Nordeste 0 1012.3 -0.4 68
2020-03-25 17:00:00 12.7 20 Este 26 Este 0 1012.4 -0.5 66
2020-03-25 16:00:00 12.9 18 Este 28 Norte 0 1012.5 -0.7 66
2020-03-25 15:00:00 12.7 14 Este 26 Este 0 1012.7 -0.7 68
2020-03-25 14:00:00 12.6 18 Este 26 Este 0 1012.9 -0.5 69
2020-03-25 13:00:00 12.8 16 Este 24 Este 0 1013.2 -0.2 65
2020-03-25 12:00:00 12.9 8 Nordeste 15 Este 0 1013.4 0.7 65
2020-03-25 11:00:00 12.2 9 Nordeste 28 Este 0 1013.4 0.8 69
2020-03-25 10:00:00 12 18 Nordeste 28 Nordeste 0 1013.4 1 74
2020-03-25 09:00:00 11.7 12 Noroeste 17 Noroeste 0 1012.7 0.2 72
2020-03-25 08:00:00 10.2 13 Noroeste 21 Noroeste 0 1012.6 0.3 78
2020-03-25 07:00:00 10.1 10 Noroeste 26 Norte 0 1012.4 0.1 78
2020-03-25 06:00:00 10.4 11 Noroeste 18 Noroeste 0 1012.5 0.3 77
2020-03-25 05:00:00 10.8 13 Noroeste 18 Norte 0 1012.3 -0.1 74
2020-03-25 04:00:00 11 9 Norte 24 Nordeste 0 1012.3 -0.2 72
2020-03-25 03:00:00 11.2 17 Nordeste 37 Este 0 1012.2 0 68
2020-03-25 02:00:00 11.8 26 Nordeste 45 Nordeste 0 1012.4 0.3 66
2020-03-25 01:00:00 12.5 26 Nordeste 46 Nordeste 0 1012.5 0.6 66
2020-03-25 00:00:00 12.4 23 Nordeste 48 Este 0 1012.2 0.6 75
2020-03-24 23:00:00 12.2 35 Nordeste 48 Este 0 1012.1 1.3 77
2020-03-24 22:00:00 12.7 23 Nordeste 42 Nordeste 0 1011.9 1.6 73
2020-03-24 21:00:00 12.8 28 Nordeste 46 Nordeste 0 1011.6 1.8 82
2020-03-24 20:00:00 12.6 25 Nordeste 42 Nordeste 0 1010.8 1.6 88
2020-03-24 19:00:00 13.1 26 Nordeste 52 Este 0 1010.3 0.7 83
2020-03-24 18:00:00 14.1 30 Este 41 Este 0 1009.8 -0.1 76
2020-03-24 17:00:00 14.1 21 Nordeste 39 Nordeste 0 1009.2 -1.6 85
2020-03-24 16:00:00 13.8 25 Nordeste 45 Nordeste 0 1009.6 -1.5 85
2020-03-24 15:00:00 13.7 29 Nordeste 52 Nordeste 0.5 1009.9 -1.4 86
2020-03-24 14:00:00 13.3 28 Nordeste 52 Este 1.5 1010.8 -0.3 91
2020-03-24 13:00:00 13.2 25 Nordeste 50 Nordeste 0.8 1011.1 0.5 93
2020-03-24 12:00:00 13.2 32 Nordeste 61 Este 1.6 1011.3 0.8 92
2020-03-24 11:00:00 13.4 34 Nordeste 63 Este 1.9 1011.1 0.9 93
2020-03-24 10:00:00 13.4 32 Nordeste 55 Nordeste 0.8 1010.6 0.6 91
2020-03-24 09:00:00 12.6 18 Nordeste 45 Nordeste 2.1 1010.5 1.3 91
2020-03-24 08:00:00 12.6 22 Nordeste 37 Nordeste 0.1 1010.2 0.2 87
2020-03-24 07:00:00 12.6 19 Norte 39 Nordeste 0.7 1010 0 86
2020-03-24 06:00:00 11.7 26 Nordeste 41 Nordeste 3.7 1009.2 -0.6 96
2020-03-24 05:00:00 11.8 20 Nordeste 37 Nordeste 6.8 1010 -1 97
2020-03-24 04:00:00 12.2 23 Nordeste 41 Nordeste 4.1 1010 -1.6 95
2020-03-24 03:00:00 12.3 27 Nordeste 50 Nordeste 4.4 1009.8 -0.9 96
2020-03-24 02:00:00 12.9 29 Nordeste 42 Nordeste 3.1 1011 0.1 93
2020-03-24 01:00:00 13.8 22 Nordeste 48 Este 0.2 1011.6 0.4 87
2020-03-24 00:00:00 13.6 20 Nordeste 50 Nordeste 0.3 1010.7 -0.5 89
2020-03-23 23:00:00 14.1 27 Nordeste 46 Nordeste 0 1010.9 -0.5 86
2020-03-23 22:00:00 14.2 29 Nordeste 52 Nordeste 0 1011.2 0.6 86
2020-03-23 21:00:00 13.6 27 Nordeste 46 Este 0.6 1011.2 0.5 89
2020-03-23 20:00:00 14.4 33 Este 50 Nordeste 0.2 1011.4 0.8 87
2020-03-23 19:00:00 14.4 31 Nordeste 45 Nordeste 0.2 1010.6 0.3 91
2020-03-23 18:00:00 14.6 31 Este 46 Este 0.1 1010.7 0 91
2020-03-23 17:00:00 15 31 Este 45 Este 0 1010.6 -0.7 89
2020-03-23 16:00:00 15.2 30 Este 45 Este 0 1010.3 -1.7 87
2020-03-23 15:00:00 16.2 32 Este 46 Este 0 1010.7 -1.5 83
2020-03-23 14:00:00 16.5 32 Este 46 Este 0 1011.3 -0.7 84
2020-03-23 13:00:00 16.8 24 Nordeste 35 Nordeste 0 1012 0.4 84
2020-03-23 12:00:00 15.8 21 Nordeste 32 Nordeste 0 1012.2 1 85
2020-03-23 11:00:00 15.6 19 Nordeste 35 Nordeste 0 1012 1.1 85
2020-03-23 10:00:00 15.7 20 Nordeste 32 Nordeste 0 1011.6 1.2 83
2020-03-23 09:00:00 14.1 12 Nordeste 18 Nordeste 0 1011.2 0.9 89
2020-03-23 08:00:00 13.1 8 Norte 15 Nordeste 0 1010.9 1 89
2020-03-23 07:00:00 12.6 8 Norte 15 Norte 0 1010.4 0.8 89
2020-03-23 06:00:00 12.7 7 Sudoeste 21 Norte 0 1010.3 0.5 91
2020-03-23 05:00:00 13.1 13 Norte 26 Norte 0 1009.9 -0.1 91
2020-03-23 04:00:00 12.7 6 Sudoeste 21 Norte 0 1009.6 -0.8 93
2020-03-23 03:00:00 12.6 12 Nordeste 30 Sudoeste 1.2 1009.8 -0.8 93
2020-03-23 02:00:00 12.7 19 Norte 30 Norte 0 1010 -0.7 94
2020-03-23 01:00:00 12.2 9 Nordeste 17 Norte 0 1010.4 0 94
2020-03-23 00:00:00 12.3 9 Norte 15 Norte 2.4 1010.6 0.7 97
2020-03-22 23:00:00 12.6 9 Norte 13 Norte 0 1010.7 1.2 95
2020-03-22 22:00:00 12.4 6 Norte 13 Nordeste 0 1010.4 1.1 93
2020-03-22 21:00:00 12.2 10 Norte 15 Nordeste 0 1009.9 1.3 94
2020-03-22 20:00:00 12.2 11 Nordeste 17 Nordeste 0.5 1009.5 1.4 95
2020-03-22 19:00:00 12.6 7 Oeste 9 Oeste 1.8 1009.3 1.3 96
2020-03-22 18:00:00 13.1 4 Sur 17 Este 1.4 1008.6 0.4 95
2020-03-22 17:00:00 14 13 Nordeste 24 Este 0.1 1008.1 -0.4 87
2020-03-22 16:00:00 15.1 12 Este 21 Este 0 1008 -0.9 81
2020-03-22 15:00:00 14.8 8 Este 17 Este 0 1008.2 -0.7 80
2020-03-22 14:00:00 14.7 9 Este 18 Sudeste 0 1008.5 -0.3 80
2020-03-22 13:00:00 14.6 15 Este 24 Este 0 1008.9 0.2 78
2020-03-22 12:00:00 14.9 14 Este 21 Este 0 1008.9 0.8 82
2020-03-22 11:00:00 14.3 10 Este 15 Norte 0 1008.8 1.1 83
2020-03-22 10:00:00 13.6 2 Norte 8 Oeste 0 1008.7 1.4 86
2020-03-22 09:00:00 11.3 7 Oeste 11 Oeste 0 1008.1 1.2 95
2020-03-22 08:00:00 10.1 8 Oeste 13 Sudoeste 0 1007.7 0.8 97
2020-03-22 07:00:00 9.3 9 Oeste 15 Sudoeste 0 1007.3 0 96
2020-03-22 06:00:00 -- 9 Noroeste 13 Norte 0 1006.9 -0.7 --
2020-03-22 05:00:00 10.5 11 Noroeste 13 Noroeste 0 1006.9 -1 95
2020-03-22 04:00:00 10.5 9 Oeste 15 Oeste 0 1007.3 -0.9 95
2020-03-22 03:00:00 10.2 10 Sudoeste 13 Sudoeste 0 1007.6 -1.1 98
2020-03-22 02:00:00 10 8 Oeste 11 Oeste 0 1007.9 -1.6 96
2020-03-22 01:00:00 10.3 2 Noroeste 18 Norte 0 1008.2 -1 96
2020-03-22 00:00:00 11 13 Norte 18 Norte 3.2 1008.7 -0.2 94
2020-03-21 23:00:00 10.5 13 Noroeste 24 Oeste 12 1009.5 0.7 97
2020-03-21 22:00:00 11.8 10 Norte 18 Norte 1.1 1009.2 0.6 95
2020-03-21 21:00:00 12.6 13 Norte 17 Norte 0.6 1008.9 0.4 96
2020-03-21 20:00:00 12.6 8 Nordeste 21 Nordeste 1.9 1008.8 0.6 97
2020-03-21 19:00:00 12.8 12 Nordeste 24 Este 3 1008.6 0.5 95
2020-03-21 18:00:00 13.7 11 Este 26 Este 0.4 1008.5 -0.1 86
2020-03-21 17:00:00 14.3 19 Nordeste 33 Este 0 1008.2 -0.9 79
2020-03-21 16:00:00 14.9 22 Este 35 Este 0 1008.1 -1.3 78
2020-03-21 15:00:00 15 22 Este 32 Este 0 1008.6 -1.1 77
2020-03-21 14:00:00 15.3 24 Nordeste 39 Este 0 1009.1 -0.7 77
2020-03-21 13:00:00 15.9 28 Este 41 Este 0 1009.4 -0.6 74
2020-03-21 12:00:00 16.3 26 Nordeste 33 Este 0 1009.7 -0.5 71
2020-03-21 11:00:00 16.7 15 Este 24 Norte 0 1009.8 -0.3 70
2020-03-21 10:00:00 16 15 Nordeste 22 Nordeste 0 1010 0 71
2020-03-21 09:00:00 14.7 5 Nordeste 9 Este 0 1010.2 0.1 75
2020-03-21 08:00:00 13.3 0 Calma 11 Sur 0 1010.1 0 77
2020-03-21 07:00:00 13 3 Oeste 9 Norte 0 1010 -0.2 79
2020-03-21 06:00:00 12.3 8 Sudoeste 9 Sudoeste 0 1010.1 -0.7 85
2020-03-21 05:00:00 13.8 2 Norte 15 Norte 0 1010.1 -1.4 71
2020-03-21 04:00:00 14.3 12 Norte 18 Norte 0 1010.2 -1.9 67
2020-03-21 03:00:00 13 5 Norte 11 Norte 0 1010.8 -2 82
2020-03-21 02:00:00 13.3 8 Noroeste 13 Noroeste 0 1011.5 -1.4 81
2020-03-21 01:00:00 13.8 3 Nordeste 15 Nordeste 0 1012.1 -1.1 77
2020-03-21 00:00:00 13.8 7 Nordeste 21 Este 0 1012.8 0 77
2020-03-20 23:00:00 14.1 11 Nordeste 37 Este 0 1012.9 1.2 74
2020-03-20 22:00:00 14.2 24 Nordeste 37 Este 0 1013.2 1.6 79
2020-03-20 21:00:00 14.2 24 Este 37 Este 0 1012.8 1.1 78
2020-03-20 20:00:00 14.1 28 Nordeste 45 Este 0 1011.7 -0.3 79
2020-03-20 19:00:00 14.4 29 Este 42 Este 0 1011.6 -0.9 81
2020-03-20 18:00:00 15.3 26 Este 37 Este 0 1011.7 -1.4 75
2020-03-20 17:00:00 15.9 21 Este 33 Este 0 1012 -1.7 66
2020-03-20 16:00:00 15.6 23 Este 39 Este 0 1012.5 -1.9 65
2020-03-20 15:00:00 15.7 28 Este 39 Este 0 1013.1 -1.7 64
2020-03-20 14:00:00 16.3 27 Nordeste 42 Nordeste 0 1013.7 -1.1 61
2020-03-20 13:00:00 15.4 28 Nordeste 45 Este 0 1014.4 -0.1 65
2020-03-20 12:00:00 14.5 32 Este 48 Este 0 1014.8 0.5 73
2020-03-20 11:00:00 15.8 26 Este 45 Este 0 1014.8 1 59
2020-03-20 10:00:00 15.2 30 Este 42 Nordeste 0 1014.5 0.9 59
2020-03-20 09:00:00 14.3 14 Nordeste 24 Norte 0 1014.3 0.8 67
2020-03-20 08:00:00 12.8 14 Nordeste 24 Nordeste 0 1013.8 0.2 71
2020-03-20 07:00:00 11.7 6 Norte 17 Este 0 1013.6 0.2 73
2020-03-20 06:00:00 10.5 5 Norte 9 Norte 0 1013.5 -1 82
2020-03-20 05:00:00 11 6 Norte 21 Nordeste 0 1013.6 -1.5 81
2020-03-20 04:00:00 11.3 15 Nordeste 21 Nordeste 0 1013.4 -2 82
2020-03-20 03:00:00 12.3 10 Norte 17 Norte 0 1014.5 -1.4 82
2020-03-20 02:00:00 12.3 10 Norte 28 Nordeste 0 1015.1 -1.1 86
2020-03-20 01:00:00 12.7 17 Nordeste 30 Este 0 1015.4 -0.6 88
2020-03-20 00:00:00 13.4 22 Este 33 Este 0 1015.9 -0.2 88
2020-03-19 23:00:00 13.7 20 Nordeste 39 Este 0 1016.2 0.4 85
2020-03-19 22:00:00 13.8 26 Este 35 Este 0 1016 0.5 85
2020-03-19 21:00:00 14.1 30 Este 41 Este 0 1016.1 0.7 79
2020-03-19 20:00:00 14.2 29 Este 42 Este 0 1015.8 0 78
2020-03-19 19:00:00 14.5 31 Este 46 Este 0 1015.5 -0.7 78
2020-03-19 18:00:00 15.1 33 Nordeste 45 Este 0 1015.4 -1.5 77
2020-03-19 17:00:00 15.6 31 Este 50 Este 0 1015.8 -1.6 76
2020-03-19 16:00:00 16.7 34 Este 52 Este 0 1016.2 -2 72
2020-03-19 15:00:00 17 33 Este 46 Este 0 1016.9 -1.6 68
2020-03-19 14:00:00 17.2 33 Este 46 Este 0 1017.4 -1.6 62
2020-03-19 13:00:00 17.2 35 Este 46 Este 0 1018.2 -0.6 64
2020-03-19 12:00:00 17 33 Este 48 Nordeste 0 1018.5 0 66
2020-03-19 11:00:00 15.8 32 Este 48 Este 0 1019 0.5 71
2020-03-19 10:00:00 15.9 33 Este 45 Este 0 1018.8 0.2 72
2020-03-19 09:00:00 14.4 12 Nordeste 18 Norte 0 1018.5 0 71
2020-03-19 08:00:00 10.4 6 Norte 13 Nordeste 0 1018.5 0.2 87
2020-03-19 07:00:00 9.3 7 Norte 9 Oeste 0 1018.6 0.3 86
2020-03-19 06:00:00 8.9 8 Oeste 11 Oeste 0 1018.5 -0.7 87
2020-03-19 05:00:00 9.2 9 Sudoeste 11 Sur 0 1018.3 -1.3 87
2020-03-19 04:00:00 9.3 -- -- -- -- 0 1018.3 -1.6 86
2020-03-19 03:00:00 9.5 8 Oeste 11 Norte 0 1019.2 -1.1 86
2020-03-19 02:00:00 11.6 8 Norte 11 Norte 0 1019.6 -1 75
2020-03-19 01:00:00 12.1 7 Nordeste 11 Norte 0 1019.9 -0.8 74
2020-03-19 00:00:00 10.8 6 Norte 13 Norte 0 1020.3 -0.2 84
2020-03-18 23:00:00 11 7 Norte 13 Nordeste 0 1020.6 0.6 83
2020-03-18 22:00:00 13.1 9 Norte 17 Norte 0 1020.7 1.1 72
2020-03-18 21:00:00 13.8 9 Nordeste 21 Nordeste 0 1020.5 1.3 70
2020-03-18 20:00:00 14.6 9 Nordeste 32 Este 0 1020 0.7 69
2020-03-18 19:00:00 15.7 17 Nordeste 35 Este 0 1019.6 0 65
2020-03-18 18:00:00 16.4 23 Nordeste 41 Este 0 1019.2 -0.6 65
2020-03-18 17:00:00 17 31 Este 45 Este 0 1019.3 -1 67
2020-03-18 16:00:00 17.8 32 Este 50 Este 0 1019.6 -1.3 60
2020-03-18 15:00:00 18.1 32 Este 50 Este 0 1019.8 -1.6 61
2020-03-18 14:00:00 17.2 36 Este 50 Este 0 1020.3 -1.8 72
2020-03-18 13:00:00 19.3 35 Este 50 Este 0 1020.9 -1.3 55
2020-03-18 12:00:00 18.9 27 Nordeste 41 Nordeste 0 1021.4 -0.4 54
2020-03-18 11:00:00 18 20 Nordeste 35 Este 0 1022.1 0.6 60
2020-03-18 10:00:00 17 24 Nordeste 37 Este 0 1022.2 0.9 64
2020-03-18 09:00:00 15.5 21 Nordeste 41 Este 0 1021.8 0.5 69
2020-03-18 08:00:00 14 14 Nordeste 22 Nordeste 0 1021.5 0.4 77
2020-03-18 07:00:00 11.6 9 Nordeste 15 Nordeste 0 1021.3 0.4 84
2020-03-18 06:00:00 11.1 7 Noroeste 15 Este 0 1021.3 0.3 86
2020-03-18 05:00:00 11.4 8 Oeste 13 Nordeste 0 1021.1 0.1 85
2020-03-18 04:00:00 13.5 11 Nordeste 26 Nordeste 0 1020.9 -0.2 73
2020-03-18 03:00:00 13.6 15 Nordeste 37 Nordeste 0 1021 -0.6 73
2020-03-18 02:00:00 14.5 23 Nordeste 42 Este 0 1021 -0.5 72
2020-03-18 01:00:00 15.3 29 Nordeste 54 Este 0 1021.1 -0.2 68
2020-03-18 00:00:00 14.8 41 Este 58 Este 0 1021.6 1 82
2020-03-17 23:00:00 14.9 33 Este 48 Este 0 1021.5 1.6 84
2020-03-17 22:00:00 15.7 30 Este 65 Este 0 1021.3 2.3 73
2020-03-17 21:00:00 15.7 44 Este 65 Nordeste 0 1020.6 2.2 77
2020-03-17 20:00:00 15.6 36 Este 50 Este 0 1019.9 1.9 88
2020-03-17 19:00:00 15.9 21 Nordeste 37 Este 0 1019 0.9 87
2020-03-17 18:00:00 16.1 21 Este 42 Nordeste 0.3 1018.4 0 86
2020-03-17 17:00:00 17.4 22 Nordeste 42 Este 0 1018 -0.3 76
2020-03-17 16:00:00 17.1 21 Este 37 Este 0 1018.1 -0.9 80
2020-03-17 15:00:00 17.6 17 Este 30 Noroeste 0 1018.4 -1.4 73
2020-03-17 14:00:00 16.3 13 Noroeste 26 Noroeste 0 1018.3 -1.6 78
2020-03-17 13:00:00 15 11 Oeste 21 Norte 0 1019 -0.8 81
2020-03-17 12:00:00 13 8 Noroeste 17 Norte 0.7 1019.8 0.5 91
2020-03-17 11:00:00 12.2 12 Noroeste 17 Noroeste 1.5 1019.9 1.2 94
2020-03-17 10:00:00 11.9 9 Noroeste 13 Noroeste 0.2 1019.8 1.7 94
2020-03-17 09:00:00 11.2 6 Norte 11 Norte 0.4 1019.3 1.9 96
2020-03-17 08:00:00 11.2 10 Este 22 Este 0.8 1018.7 2.2 96
2020-03-17 07:00:00 11.3 11 Este 21 Este 0.9 1018.1 1.7 94
2020-03-17 06:00:00 11.9 7 Nordeste 22 Nordeste 0.5 1017.4 1.4 95
2020-03-17 05:00:00 12 15 Este 21 Este 0.8 1016.5 0.9 94
2020-03-17 04:00:00 12.3 0 Calma 17 Sudeste 0.4 1016.4 1.2 92
2020-03-17 03:00:00 13.6 14 Este 28 Este 0 1016 1 90
2020-03-17 02:00:00 13.2 23 Nordeste 35 Este 0 1015.6 1.3 95
2020-03-17 01:00:00 13.1 22 Este 39 Este 0 1015.2 2 93
2020-03-17 00:00:00 13.3 27 Este 39 Este 0 1015 2.4 93
2020-03-16 23:00:00 13.6 24 Este 35 Este 0 1014.3 3.1 91
2020-03-16 22:00:00 13.5 22 Este 33 Este 0 1013.2 2.9 91
2020-03-16 21:00:00 11.9 3 Este 26 Noroeste 0 1012.6 3.3 77
2020-03-16 20:00:00 10.7 18 Noroeste 30 Noroeste 0 1011.2 2.4 70
2020-03-16 19:00:00 10.7 22 Noroeste 32 Noroeste 0 1010.3 1.8 71
2020-03-16 18:00:00 11.5 19 Noroeste 33 Noroeste 0 1009.3 1.2 71
2020-03-16 17:00:00 12.3 21 Noroeste 33 Noroeste 0 1008.8 0.5 70
2020-03-16 16:00:00 11.8 19 Noroeste 30 Noroeste 0 1008.5 0.1 76
2020-03-16 15:00:00 12.3 17 Noroeste 46 Oeste 1.2 1008.1 -0.3 84
2020-03-16 14:00:00 11.6 30 Noroeste 48 Oeste 0 1008.3 -0.3 72
2020-03-16 13:00:00 15.8 14 Sudeste 26 Sudeste 0 1008.4 0.1 85
2020-03-16 12:00:00 16 12 Sudeste 18 Sudeste 0 1008.4 0.2 82
2020-03-16 11:00:00 15.8 10 Sur 17 Sur 0 1008.6 0.8 83
2020-03-16 10:00:00 15.3 6 Sudeste 13 Sur 0 1008.3 0.9 88
2020-03-16 09:00:00 14.6 5 Este 8 Sudeste 0 1008.2 0.5 92
2020-03-16 08:00:00 13.8 4 Este 9 Este 0 1007.8 -0.1 95
2020-03-16 07:00:00 13.5 8 Este 11 Este 0 1007.4 -0.1 96
2020-03-16 06:00:00 13.1 2 Este 9 Este 0.1 1007.7 -1.1 96
2020-03-16 05:00:00 12.8 3 Sudoeste 8 Sudeste 0 1007.9 -2 97
2020-03-16 04:00:00 13.1 0 Calma 8 Sur 0.1 1007.5 -3.2 95
2020-03-16 03:00:00 13.9 5 Norte 15 Norte 0.1 1008.8 -2.7 89
2020-03-16 02:00:00 14.3 8 Norte 13 Norte 0 1009.9 -1.5 87
2020-03-16 01:00:00 14.2 6 Nordeste 17 Este 0 1010.7 -0.6 87
2020-03-16 00:00:00 14.1 0 Calma 11 Nordeste 0 1011.5 0.2 87
2020-03-15 23:00:00 13.7 8 Nordeste 13 Norte 0 1011.4 -0.4 85
2020-03-15 22:00:00 13.5 7 Norte 15 Este 0 1011.3 -0.5 89
2020-03-15 21:00:00 14.1 9 Nordeste 21 Este 0 1011.3 -0.5 87
2020-03-15 20:00:00 14.9 9 Este 15 Este 0 1011.8 -0.1 85
2020-03-15 19:00:00 14.7 7 Este 18 Este 0 1011.8 -0.4 84
2020-03-15 18:00:00 15.9 12 Este 21 Este 0 1011.8 -0.9 78
2020-03-15 17:00:00 16.6 15 Este 28 Este 0 1011.9 -1.7 74
2020-03-15 16:00:00 17.3 17 Este 30 Este 0 1012.2 -2.4 69
2020-03-15 15:00:00 17.4 17 Este 28 Este 0 1012.7 -2.7 69
2020-03-15 14:00:00 17.7 16 Este 26 Este 0 1013.6 -2.1 65
2020-03-15 13:00:00 17.3 15 Este 28 Este 0 1014.6 -1.2 69
2020-03-15 12:00:00 17 14 Este 22 Este 0 1015.4 -0.2 72
2020-03-15 11:00:00 16.4 12 Este 18 Este 0 1015.7 0.4 75
2020-03-15 10:00:00 15.4 10 Nordeste 17 Norte 0 1015.8 0.9 80
2020-03-15 09:00:00 14.1 8 Norte 13 Norte 0 1015.6 0.9 88
2020-03-15 08:00:00 10.8 5 Noroeste 8 Norte 0 1015.3 0.3 96
2020-03-15 07:00:00 9.5 0 Calma 5 Noroeste 0 1014.9 -0.3 97
2020-03-15 06:00:00 9.6 3 Norte -- -- 0 1014.7 -1.2 96
2020-03-15 05:00:00 9.8 4 Noroeste -- -- 0 1015 -1.2 96
2020-03-15 04:00:00 10.5 5 Noroeste 9 Noroeste 0 1015.2 -1.4 96
2020-03-15 03:00:00 10.4 2 Oeste 8 Noroeste 0 1015.9 -1.1 96
2020-03-15 02:00:00 11.7 0 Calma 5 Norte 0 1016.2 -0.9 95
2020-03-15 01:00:00 11.8 0 Calma 9 Norte 0 1016.6 -0.4 95
2020-03-15 00:00:00 12.2 2 Noroeste 11 Norte 0 1017 0.3 94
2020-03-14 23:00:00 13.4 7 Norte 11 Norte 0 1017.1 0.8 94
2020-03-14 22:00:00 14 7 Norte 13 Norte 0 1017 1.1 92
2020-03-14 21:00:00 14.5 5 Este 11 Sudeste 0 1016.7 1 91
2020-03-14 20:00:00 14.1 8 Este 11 Este 0 1016.3 0.6 92
2020-03-14 19:00:00 14.7 9 Este 15 Sudeste 0 1015.9 0 89
2020-03-14 18:00:00 16 11 Nordeste 24 Sudeste 0 1015.7 -0.3 81
2020-03-14 17:00:00 17.4 12 Este 24 Sudeste 0 1015.7 -0.8 73
2020-03-14 16:00:00 17.9 14 Este 26 Sudeste 0 1015.9 -1.1 69
2020-03-14 15:00:00 18.2 16 Este 26 Norte 0 1016 -1.4 68
2020-03-14 14:00:00 18.8 15 Sudeste 24 Este 0 1016.5 -1.3 66
2020-03-14 13:00:00 20 15 Este 22 Este 0 1017 -0.7 63
2020-03-14 12:00:00 18.9 5 Nordeste 18 Sudeste 0 1017.4 0.5 60
2020-03-14 11:00:00 17.9 5 Sur 15 Sudoeste 0 1017.8 1.4 63
2020-03-14 10:00:00 16.7 8 Sudoeste 13 Sudoeste 0 1017.7 1.6 67
2020-03-14 09:00:00 15.6 2 Sudoeste 9 Oeste 0 1016.9 1.2 68
2020-03-14 08:00:00 11.8 6 Oeste -- -- 0 1016.4 1.1 84
2020-03-14 07:00:00 10.5 4 Sudoeste 8 Sudoeste 0 1016.1 1.1 89
2020-03-14 06:00:00 10.3 3 Oeste 5 Oeste 0 1015.7 0.5 88
2020-03-14 05:00:00 10.6 4 Sudoeste 11 Sur 0 1015.3 -0.6 88
2020-03-14 04:00:00 12.3 4 Sur 9 Oeste 0 1015 -1.1 79
2020-03-14 03:00:00 11.8 7 Oeste 9 Oeste 0 1015.2 -1 83
2020-03-14 02:00:00 12.1 0 Calma 8 Oeste 0 1015.9 -0.3 86
2020-03-14 01:00:00 11.9 0 Calma 8 Norte 0 1016.1 0.3 85
2020-03-14 00:00:00 12.7 5 Noroeste 8 Noroeste 0 1016.2 0.8 82
2020-03-13 23:00:00 13.3 4 Noroeste 8 Oeste 0 1016.2 1.6 82
2020-03-13 22:00:00 14.8 3 Nordeste 11 Este 0 1015.8 1.7 77
2020-03-13 21:00:00 15.6 9 Este 17 Este 0 1015.4 1.3 71
2020-03-13 20:00:00 15.9 10 Este 18 Este 0 1014.6 0.5 69
2020-03-13 19:00:00 16.3 12 Este 22 Este 0 1014.1 -0.1 73
2020-03-13 18:00:00 17.2 9 Nordeste 24 Este 0 1014.1 -0.3 67
2020-03-13 17:00:00 17.7 15 Nordeste 37 Este 0 1014.1 -0.8 66
2020-03-13 16:00:00 18.6 24 Este 39 Este 0 1014.2 -1 55
2020-03-13 15:00:00 18.9 17 Este 24 Este 0 1014.4 -0.2 62
2020-03-13 14:00:00 17.6 12 Este 28 Sudeste 0 1014.9 0.4 67
2020-03-13 13:00:00 21.4 15 Este 28 Este 0 1015.2 0.7 43
2020-03-13 12:00:00 22.9 12 Este 24 Nordeste 0 1014.6 0.5 38
2020-03-13 11:00:00 22.5 4 Sudeste 13 Sur 0 1014.5 1.1 40
2020-03-13 10:00:00 21.5 5 Sudoeste 13 Oeste 0 1014.5 1.5 39
2020-03-13 09:00:00 18.1 10 Oeste 15 Oeste 0 1014.1 1.4 52
2020-03-13 08:00:00 13.5 8 Oeste 15 Oeste 0 1013.4 0.9 63
2020-03-13 07:00:00 11.8 12 Oeste 15 Oeste 0 1013 0.4 70
2020-03-13 06:00:00 11.4 8 Oeste 11 Oeste 0 1012.7 -0.3 80
2020-03-13 05:00:00 12.3 6 Noroeste 13 Norte 0 1012.5 -0.7 81
2020-03-13 04:00:00 13.8 9 Norte 13 Norte 0 1012.6 -0.8 75
2020-03-13 03:00:00 11.2 5 Norte 8 Norte 0 1013 -0.8 72
2020-03-13 02:00:00 12.1 3 Sudeste 8 Oeste 0 1013.2 -0.8 67
2020-03-13 01:00:00 12.8 5 Norte 9 Norte 0 1013.4 -0.3 64
2020-03-13 00:00:00 13.1 0 Calma 11 Norte 0 1013.8 0.2 62
2020-03-12 23:00:00 13.4 -- -- -- -- 0 1014 0.5 62
2020-03-12 22:00:00 14.6 5 Noroeste 9 Noroeste 0 1013.7 0.2 55
2020-03-12 21:00:00 15.7 4 Noroeste 9 Noroeste 0 1013.6 0.2 50
2020-03-12 20:00:00 17.1 3 Nordeste 11 Nordeste 0 1013.5 0.1 46
2020-03-12 19:00:00 17.5 8 Nordeste 15 Este 0 1013.5 -0.4 52
2020-03-12 18:00:00 19.7 11 Este 15 Este 0 1013.4 -1.2 44
2020-03-12 17:00:00 21.3 11 Este 17 Este 0 1013.4 -2.4 46
2020-03-12 16:00:00 21.6 11 Este 17 Este 0 1013.9 -2.8 41
2020-03-12 15:00:00 22 12 Este 18 Este 0 1014.6 -2.4 45
2020-03-12 14:00:00 21.4 14 Este 21 Norte 0 1015.8 -1.7 54
2020-03-12 13:00:00 23.7 10 Este 17 Este 0 1016.7 -0.7 38
2020-03-12 12:00:00 21.8 6 Nordeste 13 Este 0 1017 -0.5 47
2020-03-12 11:00:00 20.7 6 Este 11 Este 0 1017.5 0.4 54
2020-03-12 10:00:00 18.7 3 Noroeste 9 Norte 0 1017.4 0.4 58
2020-03-12 09:00:00 15.8 0 Calma 5 Este 0 1017.5 0.4 71
2020-03-12 08:00:00 11.5 2 Oeste -- -- 0 1017.1 0.2 91
2020-03-12 07:00:00 10.3 6 Oeste 9 Oeste 0 1017 -0.5 93
2020-03-12 06:00:00 9.3 6 Sudoeste 8 Sudoeste 0 1017.1 -0.9 92
2020-03-12 05:00:00 11.2 0 Calma 9 Oeste 0 1016.9 -1.7 87
2020-03-12 04:00:00 10.5 5 Oeste 9 Oeste 0 1017.5 -1.4 94
2020-03-12 03:00:00 10.8 0 Calma 9 Norte 0 1018 -1 94
2020-03-12 02:00:00 11.5 7 Norte 9 Norte 0 1018.6 -0.5 93
2020-03-12 01:00:00 12 7 Noroeste 8 Oeste 0 1018.9 -0.1 92
2020-03-12 00:00:00 13.7 4 Nordeste 11 Nordeste 0 1019 0.3 91
2020-03-11 23:00:00 13.4 6 Nordeste 11 Nordeste 0 1019.1 0.5 91
2020-03-11 22:00:00 14 10 Nordeste 13 Este 0 1019 0.6 89
2020-03-11 21:00:00 14.3 9 Nordeste 13 Este 0 1018.7 0.4 89
2020-03-11 20:00:00 15 6 Nordeste 15 Este 0 1018.6 0.4 87
2020-03-11 19:00:00 16.5 11 Nordeste 13 Este 0 1018.4 0.2 80
2020-03-11 18:00:00 19.2 9 Este 15 Este 0 1018.3 -0.1 69
2020-03-11 17:00:00 19.6 9 Nordeste 18 Este 0 1018.2 -0.5 66
2020-03-11 16:00:00 20.2 14 Nordeste 21 Este 0 1018.2 -1.3 66
2020-03-11 15:00:00 20.9 13 Este 18 Este 0 1018.4 -1.5 55
2020-03-11 14:00:00 20.9 13 Este 22 Este 0 1018.7 -1.3 52
2020-03-11 13:00:00 20.2 13 Este 21 Norte 0 1019.5 -0.6 59
2020-03-11 12:00:00 21.3 10 Nordeste 17 Nordeste 0 1019.9 0 55
2020-03-11 11:00:00 19.7 3 Nordeste 11 Este 0 1020 0.7 56
2020-03-11 10:00:00 17 0 Calma 11 Sudeste 0 1020.1 0.9 63
2020-03-11 09:00:00 14.3 6 Sur 9 Sur 0 1019.9 0.8 71
2020-03-11 08:00:00 10.3 8 Oeste 9 Oeste 0 1019.3 0.3 87
2020-03-11 07:00:00 8.6 3 Noroeste 5 Oeste 0 1019.2 0 90
2020-03-11 06:00:00 9.5 0 Calma 13 Oeste 0 1019.1 -0.3 88
2020-03-11 05:00:00 9.2 10 Oeste 11 Noroeste 0 1019 -0.8 91
2020-03-11 04:00:00 9.5 2 Oeste 17 Sudoeste 0 1019.2 -1.1 89
2020-03-11 03:00:00 10.6 12 Sudoeste 21 Sudoeste 0 1019.4 -1.9 88
2020-03-11 02:00:00 11.8 11 Sudoeste 24 Sudoeste 0 1019.8 -1.8 82
2020-03-11 01:00:00 11 16 Sudoeste 22 Oeste 0 1020.3 -1.4 85
2020-03-11 00:00:00 11.1 9 Oeste 11 Oeste 0 1021.3 -0.5 85
2020-03-10 23:00:00 11.3 9 Oeste 11 Oeste 0 1021.6 -0.5 85
2020-03-10 22:00:00 12.3 0 Calma 8 Noroeste 0 1021.7 -0.3 84
2020-03-10 21:00:00 13.6 3 Noroeste 8 Oeste 0 1021.8 0 82
2020-03-10 20:00:00 13.8 3 Oeste 13 Sur 0 1022.1 0.7 82
2020-03-10 19:00:00 15.1 9 Sur 22 Sur 0 1022 0.6 73
2020-03-10 18:00:00 16.6 14 Sur 26 Sur 0 1021.8 0.1 62
2020-03-10 17:00:00 17.3 13 Sur 22 Sur 0 1021.4 -0.9 57
2020-03-10 16:00:00 18.1 14 Sur 26 Sur 0 1021.4 -1.8 51
2020-03-10 15:00:00 18.5 13 Sur 24 Sur 0 1021.7 -2 51
2020-03-10 14:00:00 18.6 10 Sudoeste 28 Sur 0 1022.3 -1.5 53
2020-03-10 13:00:00 18.3 9 Sur 26 Sudeste 0 1023.2 -0.4 56
2020-03-10 12:00:00 17.7 12 Este 22 Este 0 1023.7 0.8 57
2020-03-10 11:00:00 16.7 12 Este 18 Este 0 1023.8 1.7 64
2020-03-10 10:00:00 15.7 10 Este 17 Este 0 1023.6 2.5 69
2020-03-10 09:00:00 15.2 0 Calma 8 Noroeste 0 1022.9 2.2 64
2020-03-10 08:00:00 10.7 4 Oeste 9 Noroeste 0 1022.1 1.9 67
2020-03-10 07:00:00 9.5 5 Noroeste 11 Noroeste 0 1021.1 1.1 70
2020-03-10 06:00:00 10.1 5 Oeste 13 Noroeste 0 1020.7 0.9 91
2020-03-10 05:00:00 10.6 8 Noroeste 13 Noroeste 0 1020.2 0.5 90
2020-03-10 04:00:00 11.6 6 Noroeste 13 Norte 0 1020 0.5 87
2020-03-10 03:00:00 13.2 3 Oeste 13 Norte 0 1019.8 1 87
2020-03-10 02:00:00 12.9 9 Nordeste 32 Este 0 1019.7 0.8 87
2020-03-10 01:00:00 15.9 15 Nordeste 26 Nordeste 0 1019.5 1.1 38
2020-03-10 00:00:00 16.3 14 Oeste 22 Noroeste 0 1018.8 1 38
2020-03-09 23:00:00 17.7 9 Norte 28 Noroeste 0 1018.9 1.5 35
2020-03-09 22:00:00 18.3 15 Noroeste 24 Noroeste 0 1018.4 1.4 34
2020-03-09 21:00:00 15.6 4 Nordeste 24 Oeste 0 1017.8 0.8 50
2020-03-09 20:00:00 16.4 12 Noroeste 26 Noroeste 0 1017.4 0.9 55
2020-03-09 19:00:00 20.6 18 Noroeste 39 Oeste 0 1017 0 29
2020-03-09 18:00:00 21.5 19 Noroeste 37 Noroeste 0 1017 -0.8 29
2020-03-09 17:00:00 21.6 28 Noroeste 42 Noroeste 0 1016.5 -2.2 29
2020-03-09 16:00:00 21.7 21 Noroeste 52 Noroeste 0 1017 -2.5 28
2020-03-09 15:00:00 20.7 21 Noroeste 45 Oeste 0 1017.8 -2 31
2020-03-09 14:00:00 20.8 23 Oeste 37 Oeste 0 1018.7 -1.4 33
2020-03-09 13:00:00 19.2 24 Oeste 41 Oeste 0 1019.5 -0.4 39
2020-03-09 12:00:00 18.7 21 Oeste 33 Noroeste 0 1019.8 0.4 40
2020-03-09 11:00:00 18 20 Noroeste 33 Noroeste 0 1020.1 1.4 43
2020-03-09 10:00:00 17.1 24 Oeste 41 Noroeste 0 1019.9 1.7 47
2020-03-09 09:00:00 15.3 29 Oeste 37 Oeste 0 1019.4 1.9 51
2020-03-09 08:00:00 14.6 12 Oeste 30 Oeste 0 1018.7 1.8 52
2020-03-09 07:00:00 14.4 22 Oeste 35 Oeste 0 1018.2 1.3 52
2020-03-09 06:00:00 14.1 11 Oeste 33 Oeste 0 1017.5 0.2 52
2020-03-09 05:00:00 16 21 Oeste 39 Oeste 0 1016.9 -- 46
2020-03-09 04:00:00 17.2 25 Oeste 37 Oeste 0 1016.9 -0.5 40
2020-03-09 03:00:00 16.9 18 Oeste 32 Oeste 0 1017.3 -0.4 37
2020-03-09 02:00:00 -- -- -- -- -- -- -- -- --
2020-03-09 01:00:00 14 12 Oeste 17 Oeste 0 1017.4 -0.5 62
2020-03-09 00:00:00 14.7 9 Sudoeste 17 Sudoeste 0 1017.7 -0.3 60
2020-03-08 23:00:00 15.3 14 Sudoeste 18 Sudoeste 0 1017.7 -0.2 58
2020-03-08 22:00:00 15.3 12 Sudoeste 22 Sudoeste 0 1017.9 0.5 57
2020-03-08 21:00:00 16 12 Oeste 18 Sudoeste 0 1018 1.2 53
2020-03-08 20:00:00 16.8 10 Sudoeste 17 Sudoeste 0 1017.9 1 49
2020-03-08 19:00:00 19.2 10 Sur 28 Sur 0 1017.4 0.1 44
2020-03-08 18:00:00 20.6 19 Sur 33 Sur 0 1016.8 -1.1 42
2020-03-08 17:00:00 21.6 21 Sur 37 Sur 0 1016.9 -2 39
2020-03-08 16:00:00 21.6 20 Sur 32 Sur 0 1017.3 -2.6 37
2020-03-08 15:00:00 22.9 18 Sudoeste 35 Sudoeste 0 1017.9 -2.7 28
2020-03-08 14:00:00 21.4 20 Sudoeste 32 Sudoeste 0 1018.9 -2.2 30
2020-03-08 13:00:00 22 12 Oeste 32 Oeste 0 1019.9 -1.3 27
2020-03-08 12:00:00 20.3 19 Noroeste 37 Oeste 0 1020.6 -0.2 30
2020-03-08 11:00:00 19 23 Oeste 32 Oeste 0 1021.1 0.4 35
2020-03-08 10:00:00 17.1 4 Oeste 11 Sudoeste 0 1021.2 1.2 41
2020-03-08 09:00:00 13.6 3 Sur 9 Oeste 0 1020.8 1.2 56
2020-03-08 08:00:00 7.8 8 Sudoeste 17 Sudoeste 0 1020.7 0.9 73
2020-03-08 07:00:00 6.8 8 Oeste 15 Sudoeste 0 1020 0.1 75
2020-03-08 06:00:00 7.7 12 Sudoeste 18 Oeste 0 1019.6 -0.7 71
2020-03-08 05:00:00 6.5 10 Sudoeste 13 Sudoeste 0 1019.8 -1.1 74
2020-03-08 04:00:00 7.5 6 Oeste 21 Noroeste 0 1019.9 -1.1 68
2020-03-08 03:00:00 9.4 10 Noroeste 18 Noroeste 0 1020.3 -1 60
2020-03-08 02:00:00 9.1 12 Noroeste 18 Noroeste 0 1020.9 -0.6 68
2020-03-08 01:00:00 10.7 11 Noroeste 18 Norte 0 1021 -0.3 60
2020-03-08 00:00:00 11.8 14 Norte 21 Norte 0 1021.3 0.4 58
2020-03-07 23:00:00 11.9 13 Norte 21 Norte 0 1021.5 0.9 61
2020-03-07 22:00:00 12.3 11 Norte -- -- -- 1021.3 1.6 65
2020-03-07 21:00:00 13.2 0 Calma 9 Sur 0 1020.9 2.7 61
2020-03-07 20:00:00 13.4 0 Calma 11 Sur 0 1020.6 2.7 60
2020-03-07 19:00:00 14.3 5 Sudeste 21 Sur 0 1019.7 1.9 54
2020-03-07 18:00:00 16.3 12 Sur 22 Sudeste 0 1018.2 0.4 38
2020-03-07 17:00:00 16.8 12 Sudeste 28 Sudeste 0 1017.9 -0.4 37
2020-03-07 16:00:00 19.4 18 Este 28 Este 0 1017.8 -1.3 31
2020-03-07 15:00:00 19.1 15 Noroeste 45 Norte 0 1017.8 -1.9 29
2020-03-07 14:00:00 19 20 Norte 39 Norte 0 1018.3 -1.6 28
2020-03-07 13:00:00 18.3 14 Noroeste 42 Norte 0 1019.1 -0.2 29
2020-03-07 12:00:00 16.2 29 Noroeste 45 Noroeste 0 1019.7 0.8 30
2020-03-07 11:00:00 15.1 20 Noroeste 65 Noroeste 0 1019.9 1.2 32
2020-03-07 10:00:00 13.1 38 Noroeste 63 Noroeste 0 1019.3 0.8 36
2020-03-07 09:00:00 11.8 39 Noroeste 54 Noroeste 0 1018.9 0.4 37
2020-03-07 08:00:00 11.4 32 Noroeste 52 Noroeste 0 1018.7 0.6 38
2020-03-07 07:00:00 11.2 19 Oeste 39 Noroeste 0 1018.5 1.1 38
2020-03-07 06:00:00 11.1 10 Oeste 41 Noroeste 0 1018.5 0 39
2020-03-07 05:00:00 11.3 33 Noroeste 54 Noroeste 0 1018.1 -0.4 37
2020-03-07 04:00:00 11.3 38 Noroeste 50 Noroeste 0 1017.4 -1.2 38
2020-03-07 03:00:00 12.1 23 Noroeste 33 Oeste 0 1018.5 0.1 35
2020-03-07 02:00:00 10.7 14 Oeste 30 Noroeste 0 1018.5 0.7 38
2020-03-07 01:00:00 12.4 19 Oeste 32 Oeste 0 1018.6 1.5 32
2020-03-07 00:00:00 10.2 10 Sudoeste 24 Oeste 0 1018.4 2.5 38
2020-03-06 23:00:00 13.2 14 Oeste 30 Noroeste 0 1017.8 3.1 29
2020-03-06 22:00:00 14.1 19 Noroeste 42 Oeste 0 1017.1 3.5 28
2020-03-06 21:00:00 14.8 26 Noroeste 52 Noroeste 0 1015.9 3.2 28
2020-03-06 20:00:00 15.5 33 Noroeste 58 Noroeste 0 1014.7 2.8 27
2020-03-06 19:00:00 16.1 37 Noroeste 61 Noroeste 0 1013.6 2.1 27
2020-03-06 18:00:00 17.1 35 Oeste 58 Oeste 0 1012.7 1 23
2020-03-06 17:00:00 17.1 36 Noroeste 59 Oeste 0 1011.9 -0.2 24
2020-03-06 16:00:00 17.5 40 Oeste 59 Oeste 0 1011.5 -1.6 27
2020-03-06 15:00:00 16.8 42 Oeste 59 Oeste 0 1011.7 -0.7 35
2020-03-06 14:00:00 15.2 39 Oeste 61 Oeste 0 1012.1 -0.6 45
2020-03-06 13:00:00 13.4 36 Noroeste 61 Oeste 0.1 1013.1 0.5 63
2020-03-06 12:00:00 16.1 37 Oeste 59 Noroeste 0 1012.4 0.2 42
2020-03-06 11:00:00 15.2 27 Oeste 48 Noroeste 0 1012.7 1.2 43
2020-03-06 10:00:00 15.6 21 Oeste 37 Oeste 0 1012.6 1.1 42
2020-03-06 09:00:00 14 28 Oeste 41 Oeste 0 1012.2 0.8 48
2020-03-06 08:00:00 12.4 21 Oeste 35 Oeste 0 1011.5 0.2 54
2020-03-06 07:00:00 13.1 18 Oeste 42 Oeste 0 1011.5 0.5 51
2020-03-06 06:00:00 14.1 26 Oeste 37 Oeste 0 1011.4 0.5 50
2020-03-06 05:00:00 14.4 20 Noroeste 33 Noroeste 0 1011.3 0.4 50
2020-03-06 04:00:00 15.2 19 Oeste 32 Oeste 0 1011 0.3 49
2020-03-06 03:00:00 15.6 15 Oeste 30 Oeste 0 1010.9 0.6 46
2020-03-06 02:00:00 14.9 8 Sudoeste 30 Oeste 0 1010.9 0.7 48
2020-03-06 01:00:00 16 21 Oeste 33 Oeste 0 1010.7 1.1 45
2020-03-06 00:00:00 15.6 13 Oeste 22 Oeste 0 1010.3 1.9 47
2020-03-05 23:00:00 17 13 Oeste 33 Oeste 0 1010.2 2.3 43
2020-03-05 22:00:00 17.8 25 Oeste 37 Oeste 0 1009.6 3 42
2020-03-05 21:00:00 19 29 Oeste 39 Oeste 0 1008.4 3.2 38
2020-03-05 20:00:00 19.8 14 Oeste 58 Oeste 0 1007.9 3.2 36
2020-03-05 19:00:00 21 38 Oeste 55 Oeste 0 1006.6 2.1 33
2020-03-05 18:00:00 21.9 35 Oeste 52 Oeste 0 1005.2 0.3 41
2020-03-05 17:00:00 23.9 46 Oeste 68 Oeste 0 1004.7 -0.9 37
2020-03-05 16:00:00 25.4 43 Oeste 65 Oeste 0 1004.5 -2.4 35
2020-03-05 15:00:00 24.2 30 Oeste 45 Oeste 0 1004.9 -3.2 35
2020-03-05 14:00:00 22.6 29 Sudoeste 42 Sudoeste 0 1005.6 -2.9 38
2020-03-05 13:00:00 23 22 Sudoeste 39 Sudoeste 0 1006.9 -2.2 38
2020-03-05 12:00:00 21.2 20 Sudoeste 35 Sudoeste 0 1008.1 -1.4 42
2020-03-05 11:00:00 20 20 Sudoeste 32 Sudoeste 0 1008.5 -0.9 47
2020-03-05 10:00:00 18.6 18 Oeste 33 Oeste 0 1009.1 -0.7 49
2020-03-05 09:00:00 17.2 14 Sudoeste 28 Oeste 0 1009.5 -0.6 53
2020-03-05 08:00:00 15.1 9 Sur 28 Oeste 0 1009.4 -0.9 58
2020-03-05 07:00:00 15.6 14 Oeste 24 Oeste 0 1009.8 -1.2 53
2020-03-05 06:00:00 15.4 18 Oeste 28 Oeste 0 1010.1 -1.8 54
2020-03-05 05:00:00 16.1 17 Noroeste 26 Oeste 0 1010.3 -2.4 51
2020-03-05 04:00:00 13.8 16 Oeste 30 Oeste 0 1011 -1.9 61
2020-03-05 03:00:00 15.5 20 Oeste 32 Oeste 0 1011.9 -1.6 55
2020-03-05 02:00:00 15.8 16 Oeste 30 Oeste 0 1012.7 -1.3 54
2020-03-05 01:00:00 16.6 21 Oeste 30 Oeste 0 1012.9 -1.2 51
2020-03-05 00:00:00 16.8 23 Oeste 32 Noroeste 0 1013.5 -0.2 50
2020-03-04 23:00:00 16.7 15 Oeste 21 Oeste 0 1014 0.3 51
2020-03-04 22:00:00 18 3 Sudeste 22 Oeste 0 1014.1 0.7 46
2020-03-04 21:00:00 18.6 20 Oeste 45 Noroeste 0 1013.7 0.7 44
2020-03-04 20:00:00 19.3 30 Noroeste 45 Noroeste 0 1013.7 0.7 44
2020-03-04 19:00:00 20.5 31 Noroeste 46 Noroeste 0 1013.4 -0.2 41
2020-03-04 18:00:00 22.1 27 Noroeste 41 Oeste 0 1013 -1.1 39
2020-03-04 17:00:00 22.6 28 Noroeste 45 Noroeste 0 1013 -1.7 38
2020-03-04 16:00:00 23 25 Noroeste 54 Noroeste 0 1013.6 -2.5 38
2020-03-04 15:00:00 22.7 30 Noroeste 48 Noroeste 0 1014.1 -2 40
2020-03-04 14:00:00 22.5 32 Noroeste 52 Oeste 0 1014.7 -1.4 42
2020-03-04 13:00:00 21.7 36 Oeste 48 Oeste 0 1016.1 -0.1 46
2020-03-04 12:00:00 22.4 24 Oeste 59 Noroeste 0 1016.1 0.2 47
2020-03-04 11:00:00 21.3 20 Oeste 33 Oeste 0 1016.1 0.6 50
2020-03-04 10:00:00 19.4 8 Sudoeste 32 Sudoeste 0 1016.2 1.2 55
2020-03-04 09:00:00 19 13 Oeste 26 Sur 0 1015.9 1.3 57
2020-03-04 08:00:00 15.1 12 Sur 24 Sur 0 1015.5 1 70
2020-03-04 07:00:00 14.3 0 Calma 13 Sur 0 1015 0.6 73
2020-03-04 06:00:00 14.3 6 Sudeste 15 Noroeste 0 1014.6 -- 73
2020-03-04 05:00:00 16.1 8 Oeste 21 Sur 0 1014.5 -- 66
2020-03-04 04:00:00 14.2 13 Sudoeste -- -- -- 1014.4 0.2 72
2020-03-04 03:00:00 -- -- -- -- -- -- -- -- --
2020-03-04 02:00:00 -- -- -- -- -- -- -- -- --
2020-03-04 01:00:00 14.7 9 Sur 17 Sur 0 1014.2 1.5 68
2020-03-04 00:00:00 16.4 7 Oeste 21 Sur 0 1014.2 1.7 61
2020-03-03 23:00:00 17.6 12 Sur 39 Oeste 0 1013.7 2 55
2020-03-03 22:00:00 17.7 26 Oeste 39 Oeste 0 1012.7 2.1 53
2020-03-03 21:00:00 17.4 17 Sudoeste 33 Oeste 0 1012.5 2.5 54
2020-03-03 20:00:00 18.3 21 Sudoeste 35 Oeste 0 1011.7 1.9 50
2020-03-03 19:00:00 20.2 27 Oeste 54 Oeste 0 1010.6 1.1 43
2020-03-03 18:00:00 21.2 32 Oeste 54 Oeste 0 1010 0.4 41
2020-03-03 17:00:00 21.7 35 Oeste 55 Noroeste 0 1009.8 -0.5 37
2020-03-03 16:00:00 22.3 38 Noroeste 61 Noroeste 0 1009.5 -- 36
2020-03-03 15:00:00 22.9 41 Noroeste 61 Noroeste 0 1009.6 -4.1 35
2020-03-03 14:00:00 21.1 24 Sudoeste 50 Oeste 0 1010.3 -4.4 33
2020-03-03 13:00:00 16.5 20 Sudoeste 28 Sudoeste 0 -- -- 42
2020-03-03 12:00:00 15.1 10 Sudoeste 18 Sudoeste 0 1013.7 -1.6 46
2020-03-03 11:00:00 14.3 13 Oeste 18 Oeste 0 1014.7 -0.1 48
2020-03-03 10:00:00 12.9 12 Oeste 17 Oeste 0 1015.2 0.2 52
2020-03-03 09:00:00 10.8 10 Sudoeste 18 Sur 0 1015.3 0.5 59
2020-03-03 08:00:00 10 12 Oeste 17 Oeste 0 1014.8 0.5 59
2020-03-03 07:00:00 8.9 14 Oeste 18 Oeste 0 1015 0.3 64
2020-03-03 06:00:00 8.1 8 Oeste 21 Oeste 0 1014.8 0.1 64
2020-03-03 05:00:00 7.6 5 Oeste 15 Oeste 0 1014.3 -0.8 63
2020-03-03 04:00:00 9.1 4 Sudeste 24 Noroeste 0 1014.7 0.1 54
2020-03-03 03:00:00 11.6 16 Noroeste 21 Noroeste 0 1014.7 0.1 43
2020-03-03 02:00:00 12.4 10 Sudoeste 22 Sudoeste 0 1015.1 1.5 40
2020-03-03 01:00:00 12.9 8 Oeste 33 Noroeste 0 1014.6 1.9 36
2020-03-03 00:00:00 13.3 15 Oeste 50 Noroeste 0 1014.6 3 35
2020-03-02 23:00:00 13.7 26 Noroeste 55 Noroeste 0 1013.6 2.7 35
2020-03-02 22:00:00 13.6 40 Noroeste 67 Noroeste 0 1012.7 2.9 37
2020-03-02 21:00:00 13.6 33 Noroeste 50 Noroeste 0 1011.6 5.7 44
2020-03-02 20:00:00 12.5 19 Oeste 54 Noroeste 0.2 1010.9 7.5 61
2020-03-02 19:00:00 12.8 40 Noroeste 78 Noroeste 0 1009.8 7.4 67
2020-03-02 18:00:00 15.3 48 Noroeste 72 Noroeste 0.4 1005.9 4.6 59
2020-03-02 17:00:00 21.8 45 Oeste 72 Oeste 0 1003.4 2.2 25
2020-03-02 16:00:00 22.7 55 Oeste 78 Oeste 0 1002.4 0.6 24
2020-03-02 15:00:00 24.1 56 Oeste 76 Oeste 0 1001.3 -0.2 23
2020-03-02 14:00:00 24.3 48 Oeste 76 Oeste 0 1001.2 -0.7 28
2020-03-02 13:00:00 24.3 50 Oeste 82 Oeste 0 1001.8 -0.2 32
2020-03-02 12:00:00 24.1 50 Oeste 74 Oeste 0 1001.5 -0.3 31
2020-03-02 11:00:00 21.6 20 Sudoeste 35 Sudoeste 0 1001.9 0.3 42
2020-03-02 10:00:00 17.8 12 Sudoeste 24 Sudoeste 0 1002 0.1 54
2020-03-02 09:00:00 16.3 15 Oeste 28 Oeste 0 1001.8 -0.3 58
2020-03-02 08:00:00 16.7 18 Oeste 41 Oeste 0 1001.6 -0.8 56
2020-03-02 07:00:00 17.7 25 Oeste 50 Oeste 0 1001.9 -1.4 55
2020-03-02 06:00:00 17.9 29 Oeste 42 Oeste 0 1002.1 -3.1 54
2020-03-02 05:00:00 15.8 17 Sudoeste 32 Sudoeste 0 1002.4 -4.1 61
2020-03-02 04:00:00 16.4 22 Sudoeste 33 Sudoeste 0 1003.3 -4 57
2020-03-02 03:00:00 15.3 16 Sudoeste 26 Sudoeste 0 1005.2 -3.6 61
2020-03-02 02:00:00 14.3 8 Sudoeste 28 Sudoeste 0 1006.5 -3.1 64
2020-03-02 01:00:00 15.1 16 Sudoeste 26 Oeste 0 1007.3 -2.8 59
2020-03-02 00:00:00 14.1 13 Oeste 21 Oeste 0 1008.8 -1.7 63
2020-03-01 23:00:00 13.2 6 Sur 17 Oeste 0 1009.6 -0.8 73
2020-03-01 22:00:00 14.6 12 Oeste 17 Sudoeste 0 1010.1 0 73
2020-03-01 21:00:00 15.2 14 Oeste 18 Sur 0 1010.5 1 73
2020-03-01 20:00:00 16 9 Sudoeste 15 Sudoeste 0 1010.4 0.7 73
2020-03-01 19:00:00 19.4 9 Sudoeste 32 Oeste 0 1010.1 0.4 46
2020-03-01 18:00:00 21.4 25 Oeste 37 Sudoeste 0 1009.5 -0.8 38
2020-03-01 17:00:00 22.2 21 Oeste 37 Oeste 0 1009.7 -1.5 37
2020-03-01 16:00:00 21.9 28 Oeste 42 Oeste 0 1009.7 -2 38
2020-03-01 15:00:00 22.1 32 Oeste 46 Oeste 0 1010.3 -2 38
2020-03-01 14:00:00 21.4 15 Sudoeste 26 Sudoeste 0 1011.2 -1.2 42
2020-03-01 13:00:00 20.1 19 Sudoeste 35 Oeste 0 1011.7 -0.6 41
2020-03-01 12:00:00 20.3 23 Oeste 33 Oeste 0 1012.3 0.3 41
2020-03-01 11:00:00 19.5 18 Oeste 35 Oeste 0 1012.4 1.5 43
2020-03-01 10:00:00 19.6 3 Oeste 17 Oeste 0 1012.3 2.1 43
2020-03-01 09:00:00 17 13 Noroeste 30 Noroeste 0 1012 1.7 56
2020-03-01 08:00:00 15 9 Noroeste 17 Noroeste 0 1010.9 1.1 64
2020-03-01 07:00:00 15.1 4 Sur 9 Sur 0 1010.2 0.3 65
2020-03-01 06:00:00 14.6 4 Sudeste 17 Sur 0 1010.3 0.3 68
2020-03-01 05:00:00 16 10 Sudoeste 21 Oeste 0 1009.8 -0.3 62
2020-03-01 04:00:00 16.7 14 Oeste 21 Oeste 0 1009.9 -0.2 57
2020-03-01 03:00:00 17.4 11 Oeste 26 Oeste 0 1010 -0.4 53
2020-03-01 02:00:00 17.7 14 Oeste 26 Oeste 0 1010.1 -0.5 52
2020-03-01 01:00:00 19 18 Oeste 39 Oeste 0 1010.1 0 48
2020-03-01 00:00:00 18.6 14 Oeste 37 Oeste 0 1010.4 0.7 49
2020-02-29 23:00:00 18.9 18 Oeste 46 Oeste 0 1010.6 1.3 47
2020-02-29 22:00:00 20 25 Oeste 41 Oeste 0 1010.1 1.6 43
2020-02-29 21:00:00 19.9 14 Oeste 32 Oeste 0 1009.7 1.7 39
2020-02-29 20:00:00 17.1 11 Oeste 18 Oeste 0 1009.3 1.2 60
2020-02-29 19:00:00 17.3 10 Oeste 21 Sudoeste 0 1008.5 0 69
2020-02-29 18:00:00 18.2 16 Sudoeste 32 Sur 0 1008 -0.9 65
2020-02-29 17:00:00 20.5 19 Sur 35 Sur 0 1008.1 -2 50
2020-02-29 16:00:00 21.4 19 Sur 35 Sur 0 1008.5 -2.7 47
2020-02-29 15:00:00 21.7 21 Sur 32 Sudoeste 0 1008.9 -3.1 43
2020-02-29 14:00:00 23.3 20 Sur 33 Sudoeste 0 1010.1 -2.6 29
2020-02-29 13:00:00 21.7 21 Sur 35 Sudoeste 0 1011.2 -1 33
2020-02-29 12:00:00 18.5 21 Sudoeste 30 Sudoeste 0 1012 0.2 48
2020-02-29 11:00:00 16.1 14 Sudoeste 24 Sudoeste 0 1012.7 1.1 53
2020-02-29 10:00:00 15.4 6 Sudoeste 15 Oeste 0 1012.2 0.3 56
2020-02-29 09:00:00 11.7 11 Sudoeste 21 Oeste 0 1011.8 -0.1 63
2020-02-29 08:00:00 8.6 14 Oeste 18 Sudoeste 0 1011.6 -0.3 71
2020-02-29 07:00:00 7.9 11 Oeste 13 Oeste 0 1011.9 -0.6 79
2020-02-29 06:00:00 8.4 8 Sudoeste 9 Sudoeste 0 1011.9 -1.4 76
2020-02-29 05:00:00 8.4 8 Oeste 11 Oeste 0 1011.9 -2.2 73
2020-02-29 04:00:00 9.1 9 Oeste 13 Oeste 0 1012.5 -2.3 70
2020-02-29 03:00:00 9.8 9 Oeste 9 Oeste 0 1013.3 -2 69
2020-02-29 02:00:00 10.4 9 Oeste 11 Noroeste 0 1014.1 -1.8 68
2020-02-29 01:00:00 11.7 6 Oeste 11 Oeste 0 1014.8 -1.4 62
2020-02-29 00:00:00 11.2 5 Noroeste -- -- 0 1015.3 -0.7 64
2020-02-28 23:00:00 11.3 5 Oeste 9 Oeste 0 1015.9 -0.4 66
2020-02-28 22:00:00 12.8 6 Noroeste 9 Oeste 0 1016.2 -0.1 61
2020-02-28 21:00:00 13.2 0 Calma 11 Nordeste 0 1016 -0.3 60
2020-02-28 20:00:00 14.6 5 Nordeste 11 Nordeste 0 1016.3 -0.3 56
2020-02-28 19:00:00 16.1 6 Este 11 Norte 0 1016.3 -0.5 55
2020-02-28 18:00:00 17.8 8 Este 13 Norte 0 1016.3 -0.5 50
2020-02-28 17:00:00 19.4 12 Este 21 Este 0 1016.6 -0.7 38
2020-02-28 16:00:00 20.7 13 Este 24 Este 0 1016.8 -1.2 36
2020-02-28 15:00:00 21.4 14 Este 24 Este 0 1016.8 -1.8 41
2020-02-28 14:00:00 23.3 12 Este 21 Este 0 1017.3 -1.4 27
2020-02-28 13:00:00 23.1 5 Sudeste 15 Sudoeste 0 1018 -0.8 28
2020-02-28 12:00:00 22 7 Sur 13 Sudeste 0 1018.6 0.2 34
2020-02-28 11:00:00 21 5 Sudoeste 11 Sudoeste 0 1018.7 1 32
2020-02-28 10:00:00 17.8 5 Sudoeste 13 Sudoeste 0 1018.8 1.5 47
2020-02-28 09:00:00 14.7 8 Sudoeste 15 Oeste 0 1018.4 1.4 51
2020-02-28 08:00:00 13.1 12 Sudoeste 18 Oeste 0 1017.7 1.4 52
2020-02-28 07:00:00 14.2 13 Oeste 17 Oeste 0 1017.3 1 47
2020-02-28 06:00:00 15.2 12 Sudoeste 22 Noroeste 0 1017 0.2 44
2020-02-28 05:00:00 16.2 3 Noroeste 30 Noroeste 0 1016.3 -0.7 41
2020-02-28 04:00:00 17 23 Noroeste 35 Noroeste 0 1016.3 -0.7 38
2020-02-28 03:00:00 17.6 23 Noroeste 33 Noroeste 0 1016.8 -0.3 36
2020-02-28 02:00:00 18.3 21 Noroeste 35 Noroeste 0 1017 -0.2 33
2020-02-28 01:00:00 18.2 16 Noroeste 26 Noroeste 0 1017 -0.2 33
2020-02-28 00:00:00 19.1 13 Noroeste 35 Noroeste 0 1017.1 0.4 30